createdAt,value
2024-01-26T00:01:42.434Z,101165.13
2024-01-26T00:04:10.631Z,101161.59
2024-01-26T00:06:38.844Z,101145.69
2024-01-26T00:09:12.174Z,101160.69
2024-01-26T00:11:40.745Z,101155.41
2024-01-26T00:14:09.250Z,101158.03
2024-01-26T00:16:40.758Z,101149.16
2024-01-26T00:19:09.633Z,101160.69
2024-01-26T00:21:38.950Z,101151.81
2024-01-26T00:24:07.121Z,101155.34
2024-01-26T00:26:35.178Z,101150.00
2024-01-26T00:29:03.101Z,101137.53
2024-01-26T00:31:31.058Z,101134.84
2024-01-26T00:34:00.570Z,101133.97
2024-01-26T00:36:28.745Z,101137.53
2024-01-26T00:38:56.655Z,101135.63
2024-01-26T00:41:25.033Z,101133.03
2024-01-26T00:43:53.098Z,101132.06
2024-01-26T00:46:21.195Z,101124.06
2024-01-26T00:48:49.700Z,101127.59
2024-01-26T00:51:19.276Z,101132.00
2024-01-26T00:53:47.342Z,101129.38
2024-01-26T00:56:15.696Z,101115.16
2024-01-26T00:58:43.650Z,101124.81
2024-01-26T01:01:11.865Z,101116.00
2024-01-26T01:03:39.936Z,101064.75
2024-01-26T01:06:07.938Z,101091.25
2024-01-26T01:08:37.386Z,101104.53
2024-01-26T01:11:07.281Z,101028.47
2024-01-26T01:13:36.040Z,101093.00
2024-01-26T01:16:04.178Z,101104.53
2024-01-26T01:18:32.528Z,101075.38
2024-01-26T01:21:00.877Z,101105.44
2024-01-26T01:23:28.831Z,101109.91
2024-01-26T01:25:58.260Z,101103.69
2024-01-26T01:28:26.204Z,101089.50
2024-01-26T01:30:54.174Z,101099.03
2024-01-26T01:33:22.283Z,101098.22
2024-01-26T01:35:50.370Z,101091.19
2024-01-26T01:38:18.366Z,101099.19
2024-01-26T01:40:46.996Z,101086.75
2024-01-26T01:43:19.234Z,101087.63
2024-01-26T01:45:47.300Z,101085.00
2024-01-26T01:48:15.495Z,101087.66
2024-01-26T01:50:44.424Z,101082.25
2024-01-26T01:53:13.738Z,101077.84
2024-01-26T01:55:43.573Z,101071.66
2024-01-26T01:58:12.073Z,101076.06
2024-01-26T02:00:42.561Z,101071.63
2024-01-26T02:03:10.896Z,101062.75
2024-01-26T02:05:39.024Z,101045.97
2024-01-26T02:08:07.540Z,101066.28
2024-01-26T02:10:35.507Z,101068.94
2024-01-26T02:13:04.920Z,101057.38
2024-01-26T02:15:32.954Z,101063.72
2024-01-26T02:18:02.403Z,101067.22
2024-01-26T02:20:38.858Z,101055.69
2024-01-26T02:23:22.772Z,101046.84
2024-01-26T02:25:50.738Z,101060.13
2024-01-26T02:28:18.783Z,101044.16
2024-01-26T02:30:47.126Z,101048.56
2024-01-26T02:33:15.307Z,101038.78
2024-01-26T02:35:44.278Z,101039.75
2024-01-26T02:38:12.362Z,101038.84
2024-01-26T02:40:41.761Z,100976.19
2024-01-26T02:43:09.811Z,101029.81
2024-01-26T02:45:37.912Z,101034.44
2024-01-26T02:48:06.528Z,101022.00
2024-01-26T02:50:35.737Z,101017.59
2024-01-26T02:53:03.838Z,101021.19
2024-01-26T02:55:32.050Z,101013.16
2024-01-26T02:58:01.368Z,101000.94
2024-01-26T03:00:29.320Z,100998.16
2024-01-26T03:02:57.827Z,101009.59
2024-01-26T03:05:25.924Z,101015.84
2024-01-26T03:07:53.919Z,101002.53
2024-01-26T03:10:21.950Z,100994.53
2024-01-26T03:12:49.996Z,101002.53
2024-01-26T03:15:19.694Z,100981.34
2024-01-26T03:17:47.862Z,101004.31
2024-01-26T03:20:17.708Z,100976.94
2024-01-26T03:22:45.932Z,100986.63
2024-01-26T03:25:15.079Z,100981.25
2024-01-26T03:27:43.069Z,100983.84
2024-01-26T03:30:12.260Z,100976.72
2024-01-26T03:32:41.782Z,100989.06
2024-01-26T03:35:10.849Z,100980.28
2024-01-26T03:37:39.852Z,100974.13
2024-01-26T03:40:09.113Z,100981.16
2024-01-26T03:42:37.060Z,100948.53
2024-01-26T03:45:05.882Z,100960.81
2024-01-26T03:47:33.885Z,100951.91
2024-01-26T03:50:05.721Z,100950.16
2024-01-26T03:52:33.828Z,100962.44
2024-01-26T03:55:02.439Z,100963.34
2024-01-26T03:57:30.493Z,100951.81
2024-01-26T03:59:58.464Z,100945.63
2024-01-26T04:02:26.517Z,100946.47
2024-01-26T04:04:54.568Z,100951.84
2024-01-26T04:07:23.916Z,100938.53
2024-01-26T04:09:51.826Z,100934.94
2024-01-26T04:12:21.991Z,100929.63
2024-01-26T04:14:50.718Z,100920.72
2024-01-26T04:17:18.681Z,100922.50
2024-01-26T04:19:46.759Z,100925.13
2024-01-26T04:22:14.867Z,100914.47
2024-01-26T04:24:44.224Z,100916.22
2024-01-26T04:27:12.226Z,100913.50
2024-01-26T04:29:40.247Z,100918.00
2024-01-26T04:32:08.579Z,100911.75
2024-01-26T04:34:39.083Z,100919.75
2024-01-26T04:37:07.310Z,100919.81
2024-01-26T04:39:35.320Z,100916.16
2024-01-26T04:42:05.212Z,100895.94
2024-01-26T04:44:33.271Z,100909.00
2024-01-26T04:47:01.301Z,100894.75
2024-01-26T04:49:29.266Z,100890.31
2024-01-26T04:51:57.172Z,100902.72
2024-01-26T04:54:25.211Z,100892.09
2024-01-26T04:56:53.360Z,100879.59
2024-01-26T04:59:22.796Z,100858.41
2024-01-26T05:01:50.734Z,100867.09
2024-01-26T05:04:18.795Z,100865.38
2024-01-26T05:06:46.955Z,100858.28
2024-01-26T05:09:15.742Z,100858.25
2024-01-26T05:11:43.826Z,100860.00
2024-01-26T05:14:11.772Z,100775.34
2024-01-26T05:16:41.134Z,100852.88
2024-01-26T05:19:09.232Z,100840.22
2024-01-26T05:21:37.452Z,100817.47
2024-01-26T05:24:06.133Z,100835.88
2024-01-26T05:26:34.902Z,100828.72
2024-01-26T05:29:02.806Z,100824.31
2024-01-26T05:31:30.666Z,100822.56
2024-01-26T05:34:00.075Z,100812.69
2024-01-26T05:36:28.165Z,100793.22
2024-01-26T05:38:56.233Z,100813.53
2024-01-26T05:41:24.256Z,100809.94
2024-01-26T05:43:52.173Z,100809.09
2024-01-26T05:46:20.108Z,100807.34
2024-01-26T05:48:48.141Z,100791.44
2024-01-26T05:51:17.666Z,100795.88
2024-01-26T05:53:45.631Z,100787.88
2024-01-26T05:56:13.570Z,100786.09
2024-01-26T05:58:41.445Z,100768.31
2024-01-26T06:01:09.491Z,100750.72
2024-01-26T06:03:37.595Z,100764.84
2024-01-26T06:06:06.218Z,100756.84
2024-01-26T06:08:35.562Z,100762.13
2024-01-26T06:11:04.261Z,100768.38
2024-01-26T06:13:32.330Z,100742.69
2024-01-26T06:16:00.722Z,100760.31
2024-01-26T06:18:28.808Z,100761.91
2024-01-26T06:20:56.890Z,100767.97
2024-01-26T06:23:24.917Z,100739.94
2024-01-26T06:25:54.502Z,100777.84
2024-01-26T06:28:22.425Z,100783.22
2024-01-26T06:30:50.956Z,100770.84
2024-01-26T06:33:19.631Z,100769.13
2024-01-26T06:35:48.061Z,100770.06
2024-01-26T06:38:16.079Z,100755.06
2024-01-26T06:40:45.868Z,100765.66
2024-01-26T06:43:17.661Z,100752.88
2024-01-26T06:45:46.022Z,100739.69
2024-01-26T06:48:14.360Z,100769.56
2024-01-26T06:50:42.633Z,100755.19
2024-01-26T06:53:11.556Z,100756.88
2024-01-26T06:55:39.663Z,100769.13
2024-01-26T06:58:07.574Z,100762.00
2024-01-26T07:00:36.898Z,100760.75
2024-01-26T07:03:05.452Z,100763.34
2024-01-26T07:05:33.633Z,100763.44
2024-01-26T07:08:01.647Z,100756.97
2024-01-26T07:10:30.131Z,100746.47
2024-01-26T07:12:58.043Z,100746.41
2024-01-26T07:15:26.664Z,100747.16
2024-01-26T07:17:56.116Z,100700.59
2024-01-26T07:20:24.686Z,100741.94
2024-01-26T07:22:52.760Z,100737.53
2024-01-26T07:25:21.283Z,100735.41
2024-01-26T07:27:49.490Z,100737.31
2024-01-26T07:30:18.778Z,100730.13
2024-01-26T07:32:47.457Z,100707.97
2024-01-26T07:35:17.085Z,100714.06
2024-01-26T07:37:45.254Z,100718.59
2024-01-26T07:40:14.067Z,100693.41
2024-01-26T07:42:42.031Z,100702.41
2024-01-26T07:45:11.825Z,100697.09
2024-01-26T07:47:39.913Z,100694.34
2024-01-26T07:50:08.879Z,100679.25
2024-01-26T07:52:39.167Z,100678.25
2024-01-26T07:55:07.201Z,100679.88
2024-01-26T07:57:35.283Z,100671.06
2024-01-26T08:00:03.274Z,100667.38
2024-01-26T08:02:32.931Z,100654.03
2024-01-26T08:05:01.444Z,100656.53
2024-01-26T08:07:29.688Z,100662.03
2024-01-26T08:09:59.092Z,100650.41
2024-01-26T08:12:38.467Z,100645.75
2024-01-26T08:15:13.081Z,100639.66
2024-01-26T08:17:43.424Z,100640.50
2024-01-26T08:20:13.467Z,100636.97
2024-01-26T08:22:41.817Z,100637.75
2024-01-26T08:25:12.248Z,100620.03
2024-01-26T08:27:40.851Z,100596.38
2024-01-26T08:30:11.193Z,100604.09
2024-01-26T08:32:39.353Z,100603.03
2024-01-26T08:35:11.068Z,100531.03
2024-01-26T08:37:39.863Z,100524.00
2024-01-26T08:40:10.897Z,100585.09
2024-01-26T08:42:40.588Z,100591.91
2024-01-26T08:45:09.940Z,100580.47
2024-01-26T08:47:38.318Z,100570.16
2024-01-26T08:50:07.695Z,100583.44
2024-01-26T08:52:36.769Z,100584.50
2024-01-26T08:55:05.434Z,100578.28
2024-01-26T08:57:33.469Z,100583.53
2024-01-26T09:00:05.590Z,100517.59
2024-01-26T09:02:34.168Z,100563.09
2024-01-26T09:05:03.355Z,100543.41
2024-01-26T09:07:32.068Z,100546.69
2024-01-26T09:10:00.149Z,100546.56
2024-01-26T09:12:28.082Z,100545.53
2024-01-26T09:14:56.207Z,100541.91
2024-01-26T09:17:26.034Z,100544.50
2024-01-26T09:19:54.159Z,100541.81
2024-01-26T09:22:22.485Z,100541.75
2024-01-26T09:24:50.469Z,100539.91
2024-01-26T09:27:18.556Z,100528.75
2024-01-26T09:29:46.810Z,100531.22
2024-01-26T09:32:14.987Z,100533.03
2024-01-26T09:34:45.516Z,100527.59
2024-01-26T09:37:13.564Z,100536.38
2024-01-26T09:39:41.526Z,100537.22
2024-01-26T09:42:13.690Z,100527.50
2024-01-26T09:44:40.790Z,100495.94
2024-01-26T09:47:10.013Z,100516.03
2024-01-26T09:49:40.730Z,100527.22
2024-01-26T09:52:12.296Z,100509.41
2024-01-26T09:54:40.859Z,100532.91
2024-01-26T09:57:12.397Z,100522.38
2024-01-26T09:59:40.445Z,100537.16
2024-01-26T10:02:09.359Z,100485.22
2024-01-26T10:04:37.310Z,100490.22
2024-01-26T10:07:05.754Z,100523.34
2024-01-26T10:09:36.147Z,100518.78
2024-01-26T10:12:04.421Z,100520.81
2024-01-26T10:14:32.754Z,100516.25
2024-01-26T10:17:01.550Z,100492.69
2024-01-26T10:19:31.075Z,100519.59
2024-01-26T10:22:00.822Z,100514.16
2024-01-26T10:24:30.051Z,100515.97
2024-01-26T10:26:59.640Z,100515.03
2024-01-26T10:29:28.046Z,100501.72
2024-01-26T10:31:56.169Z,100510.88
2024-01-26T10:34:25.610Z,100465.75
2024-01-26T10:37:00.119Z,100502.22
2024-01-26T10:39:30.706Z,100486.09
2024-01-26T10:42:06.010Z,100499.31
2024-01-26T10:44:39.271Z,100492.22
2024-01-26T10:47:10.363Z,100478.59
2024-01-26T10:49:39.278Z,100481.72
2024-01-26T10:52:08.686Z,100469.25
2024-01-26T10:54:37.344Z,100462.03
2024-01-26T10:57:07.067Z,100461.84
2024-01-26T10:59:35.288Z,100446.97
2024-01-26T11:02:03.733Z,100450.31
2024-01-26T11:04:33.233Z,100447.22
2024-01-26T11:07:02.286Z,100425.97
2024-01-26T11:09:36.167Z,100341.03
2024-01-26T11:12:04.348Z,100432.63
2024-01-26T11:14:35.156Z,100432.59
2024-01-26T11:17:13.707Z,100435.34
2024-01-26T11:19:50.977Z,100428.47
2024-01-26T11:22:21.531Z,100428.34
2024-01-26T11:24:49.533Z,100394.09
2024-01-26T11:27:17.688Z,100412.06
2024-01-26T11:29:48.575Z,100414.56
2024-01-26T11:32:19.222Z,100410.31
2024-01-26T11:34:59.549Z,100403.09
2024-01-26T11:37:29.579Z,100387.34
2024-01-26T11:39:58.210Z,100412.81
2024-01-26T11:42:26.660Z,100403.72
2024-01-26T11:45:09.529Z,100341.81
2024-01-26T11:47:39.835Z,100397.91
2024-01-26T11:50:09.568Z,100379.31
2024-01-26T11:52:38.041Z,100417.38
2024-01-26T11:55:13.363Z,100397.44
2024-01-26T11:57:41.851Z,100412.72
2024-01-26T12:00:14.018Z,100412.09
2024-01-26T12:02:42.668Z,100423.34
2024-01-26T12:05:10.716Z,100419.88
2024-01-26T12:07:39.806Z,100430.09
2024-01-26T12:10:14.060Z,100444.53
2024-01-26T12:12:42.423Z,100502.63
2024-01-26T12:15:13.106Z,100495.81
2024-01-26T12:17:41.595Z,100554.63
2024-01-26T12:20:12.357Z,100586.63
2024-01-26T12:22:40.881Z,100578.50
2024-01-26T12:25:14.657Z,100593.69
2024-01-26T12:27:43.029Z,100593.72
2024-01-26T12:30:13.175Z,100595.53
2024-01-26T12:32:41.416Z,100618.22
2024-01-26T12:35:10.281Z,100626.34
2024-01-26T12:37:38.779Z,100615.78
2024-01-26T12:40:08.141Z,100606.34
2024-01-26T12:42:36.057Z,100622.28
2024-01-26T12:45:04.045Z,100643.13
2024-01-26T12:47:33.367Z,100607.13
2024-01-26T12:50:02.199Z,100653.81
2024-01-26T12:52:30.262Z,100644.72
2024-01-26T12:54:58.278Z,100665.28
2024-01-26T12:57:26.293Z,100658.72
2024-01-26T12:59:54.262Z,100660.63
2024-01-26T13:02:22.244Z,100673.16
2024-01-26T13:04:54.159Z,100684.56
2024-01-26T13:07:24.288Z,100669.97
2024-01-26T13:09:52.479Z,100694.31
2024-01-26T13:12:21.550Z,100693.41
2024-01-26T13:14:49.736Z,100712.06
2024-01-26T13:17:17.961Z,100716.53
2024-01-26T13:19:46.072Z,100720.38
2024-01-26T13:22:15.601Z,100721.38
2024-01-26T13:24:43.553Z,100738.09
2024-01-26T13:27:17.045Z,100745.81
2024-01-26T13:29:48.490Z,100751.75
2024-01-26T13:32:16.773Z,100752.41
2024-01-26T13:34:45.005Z,100761.81
2024-01-26T13:37:13.388Z,100754.31
2024-01-26T13:39:42.706Z,100756.78
2024-01-26T13:42:11.150Z,100760.09
2024-01-26T13:44:39.158Z,100766.63
2024-01-26T13:47:07.221Z,100788.88
2024-01-26T13:49:35.262Z,100812.97
2024-01-26T13:52:03.402Z,100847.34
2024-01-26T13:54:31.428Z,100830.13
2024-01-26T13:57:01.646Z,100830.44
2024-01-26T13:59:29.766Z,100828.81
2024-01-26T14:01:57.728Z,100839.53
2024-01-26T14:04:25.705Z,100846.00
2024-01-26T14:06:54.744Z,100830.00
2024-01-26T14:09:22.897Z,100832.16
2024-01-26T14:11:50.967Z,100847.13
2024-01-26T14:14:23.799Z,100872.94
2024-01-26T14:16:51.897Z,100856.97
2024-01-26T14:19:20.432Z,100872.88
2024-01-26T14:21:48.519Z,100899.63
2024-01-26T14:24:16.522Z,100894.31
2024-01-26T14:26:46.589Z,100906.72
2024-01-26T14:29:17.079Z,100906.00
2024-01-26T14:31:47.035Z,100911.63
2024-01-26T14:34:15.246Z,100935.63
2024-01-26T14:36:43.729Z,100939.94
2024-01-26T14:39:14.026Z,100941.84
2024-01-26T14:41:42.449Z,100957.84
2024-01-26T14:44:10.430Z,100951.97
2024-01-26T14:46:39.618Z,100916.50
2024-01-26T14:49:09.524Z,100876.22
2024-01-26T14:51:41.398Z,100964.38
2024-01-26T14:54:09.523Z,100990.06
2024-01-26T14:56:38.657Z,100981.19
2024-01-26T14:59:06.975Z,100977.75
2024-01-26T15:01:36.924Z,100988.38
2024-01-26T15:04:06.344Z,100985.03
2024-01-26T15:06:35.706Z,100993.00
2024-01-26T15:09:06.669Z,100981.56
2024-01-26T15:11:34.713Z,100994.84
2024-01-26T15:14:02.606Z,100969.28
2024-01-26T15:16:34.364Z,101020.50
2024-01-26T15:19:02.640Z,101027.81
2024-01-26T15:21:30.843Z,101014.63
2024-01-26T15:24:00.501Z,101041.84
2024-01-26T15:26:28.527Z,101043.03
2024-01-26T15:28:56.543Z,101050.06
2024-01-26T15:31:24.723Z,101061.69
2024-01-26T15:33:52.863Z,101071.50
2024-01-26T15:36:32.410Z,101000.13
2024-01-26T15:39:01.749Z,101096.47
2024-01-26T15:41:29.656Z,101094.78
2024-01-26T15:43:58.595Z,101077.81
2024-01-26T15:46:27.750Z,101103.53
2024-01-26T15:48:55.989Z,101122.09
2024-01-26T15:51:24.152Z,101142.72
2024-01-26T15:53:52.155Z,101155.28
2024-01-26T15:56:23.312Z,101173.13
2024-01-26T15:58:51.593Z,101178.59
2024-01-26T16:01:19.689Z,101173.34
2024-01-26T16:03:50.648Z,101181.31
2024-01-26T16:06:18.834Z,101187.63
2024-01-26T16:08:47.192Z,101205.41
2024-01-26T16:11:18.273Z,101198.34
2024-01-26T16:13:47.919Z,101198.28
2024-01-26T16:16:17.493Z,101200.06
2024-01-26T16:18:46.165Z,101215.16
2024-01-26T16:21:14.432Z,101230.16
2024-01-26T16:23:42.443Z,101225.00
2024-01-26T16:26:14.283Z,101244.47
2024-01-26T16:28:42.198Z,101241.72
2024-01-26T16:31:13.232Z,101253.28
2024-01-26T16:33:41.437Z,101257.72
2024-01-26T16:36:09.834Z,101268.34
2024-01-26T16:38:40.541Z,101238.41
2024-01-26T16:41:12.885Z,101285.28
2024-01-26T16:43:40.919Z,101293.28
2024-01-26T16:46:10.308Z,101279.22
2024-01-26T16:48:39.989Z,101311.91
2024-01-26T16:51:08.223Z,101313.69
2024-01-26T16:53:36.455Z,101331.50
2024-01-26T16:56:04.765Z,101334.09
2024-01-26T16:58:32.764Z,101343.75
2024-01-26T17:01:00.824Z,101352.72
2024-01-26T17:03:29.119Z,101373.13
2024-01-26T17:06:00.075Z,101363.41
2024-01-26T17:08:30.426Z,101373.19
2024-01-26T17:10:58.168Z,101383.91
2024-01-26T17:13:28.182Z,101385.66
2024-01-26T17:15:56.166Z,101397.22
2024-01-26T17:18:24.288Z,101406.97
2024-01-26T17:20:52.378Z,101412.34
2024-01-26T17:23:22.588Z,101413.28
2024-01-26T17:25:50.522Z,101308.72
2024-01-26T17:28:18.566Z,101415.03
2024-01-26T17:30:46.732Z,101418.53
2024-01-26T17:33:16.389Z,101420.34
2024-01-26T17:35:44.635Z,101423.00
2024-01-26T17:38:12.825Z,101436.34
2024-01-26T17:40:42.300Z,101431.88
2024-01-26T17:43:10.464Z,101439.91
2024-01-26T17:45:38.440Z,101401.81
2024-01-26T17:48:07.538Z,101454.09
2024-01-26T17:50:36.880Z,101432.81
2024-01-26T17:53:05.408Z,101444.34
2024-01-26T17:55:38.280Z,101477.13
2024-01-26T17:58:09.284Z,101420.44
2024-01-26T18:00:37.503Z,101487.78
2024-01-26T18:03:06.216Z,101484.25
2024-01-26T18:05:34.303Z,101500.19
2024-01-26T18:08:02.505Z,101489.53
2024-01-26T18:10:30.443Z,101498.44
2024-01-26T18:12:58.969Z,101499.31
2024-01-26T18:15:28.498Z,101496.66
2024-01-26T18:17:56.695Z,101508.19
2024-01-26T18:20:25.525Z,101511.72
2024-01-26T18:22:54.705Z,101526.81
2024-01-26T18:25:22.746Z,101524.16
2024-01-26T18:27:51.001Z,101522.38
2024-01-26T18:30:19.687Z,101528.59
2024-01-26T18:32:49.324Z,101530.34
2024-01-26T18:35:17.400Z,101532.16
2024-01-26T18:37:45.979Z,101534.78
2024-01-26T18:40:14.264Z,101543.66
2024-01-26T18:42:42.662Z,101548.13
2024-01-26T18:45:11.041Z,101561.41
2024-01-26T18:47:39.187Z,101494.00
2024-01-26T18:50:09.552Z,101548.09
2024-01-26T18:52:37.680Z,101501.97
2024-01-26T18:55:06.116Z,101567.63
2024-01-26T18:57:34.309Z,101562.28
2024-01-26T19:00:02.639Z,101571.16
2024-01-26T19:02:30.891Z,101564.06
2024-01-26T19:04:59.236Z,101589.81
2024-01-26T19:07:28.558Z,101578.22
2024-01-26T19:09:57.066Z,101597.75
2024-01-26T19:12:27.298Z,101606.63
2024-01-26T19:14:55.717Z,101609.25
2024-01-26T19:17:24.148Z,101603.97
2024-01-26T19:19:52.869Z,101605.72
2024-01-26T19:22:22.913Z,101540.97
2024-01-26T19:24:52.568Z,101549.88
2024-01-26T19:27:21.559Z,101622.63
2024-01-26T19:29:49.581Z,101619.94
2024-01-26T19:32:17.456Z,101604.84
2024-01-26T19:34:45.529Z,101642.97
2024-01-26T19:37:13.663Z,101642.03
2024-01-26T19:39:45.639Z,101617.25
2024-01-26T19:42:15.348Z,101657.19
2024-01-26T19:44:43.348Z,101663.38
2024-01-26T19:47:11.315Z,101652.69
2024-01-26T19:49:39.406Z,101671.41
2024-01-26T19:52:07.744Z,101673.97
2024-01-26T19:54:35.972Z,101667.78
2024-01-26T19:57:06.985Z,101683.81
2024-01-26T19:59:36.444Z,101671.38
2024-01-26T20:02:04.795Z,101678.44
2024-01-26T20:04:32.945Z,101687.31
2024-01-26T20:07:01.605Z,101701.53
2024-01-26T20:09:30.113Z,101697.06
2024-01-26T20:11:58.350Z,101696.19
2024-01-26T20:14:26.304Z,101702.41
2024-01-26T20:16:55.905Z,101705.03
2024-01-26T20:19:24.156Z,101702.31
2024-01-26T20:21:52.969Z,101713.88
2024-01-26T20:24:22.541Z,101704.06
2024-01-26T20:26:50.709Z,101726.31
2024-01-26T20:29:19.117Z,101724.56
2024-01-26T20:31:48.922Z,101716.50
2024-01-26T20:34:18.398Z,101732.50
2024-01-26T20:36:46.586Z,101739.56
2024-01-26T20:39:14.585Z,101731.59
2024-01-26T20:41:42.601Z,101752.00
2024-01-26T20:44:10.654Z,101687.97
2024-01-26T20:46:38.636Z,101749.25
2024-01-26T20:49:06.738Z,101751.91
2024-01-26T20:51:36.319Z,101741.25
2024-01-26T20:54:05.698Z,101754.53
2024-01-26T20:56:34.904Z,101755.47
2024-01-26T20:59:05.293Z,101749.28
2024-01-26T21:01:35.506Z,101661.31
2024-01-26T21:04:03.616Z,101675.50
2024-01-26T21:06:31.570Z,101755.47
2024-01-26T21:09:00.986Z,101764.38
2024-01-26T21:11:30.055Z,101762.59
2024-01-26T21:13:58.094Z,101766.09
2024-01-26T21:16:27.418Z,101754.53
2024-01-26T21:18:55.580Z,101766.09
2024-01-26T21:21:23.729Z,101783.00
2024-01-26T21:23:57.219Z,101790.91
2024-01-26T21:26:27.638Z,101793.59
2024-01-26T21:28:58.380Z,101743.78
2024-01-26T21:31:29.200Z,101790.91
2024-01-26T21:33:57.445Z,101800.56
2024-01-26T21:36:25.717Z,101808.53
2024-01-26T21:38:54.172Z,101807.66
2024-01-26T21:41:22.534Z,101808.56
2024-01-26T21:43:57.574Z,101810.38
2024-01-26T21:46:25.841Z,101818.34
2024-01-26T21:48:54.328Z,101825.47
2024-01-26T21:51:24.888Z,101756.09
2024-01-26T21:53:53.870Z,101797.84
2024-01-26T21:56:22.206Z,101833.47
2024-01-26T21:58:51.662Z,101761.44
2024-01-26T22:01:19.721Z,101741.81
2024-01-26T22:03:48.080Z,101824.59
2024-01-26T22:06:16.249Z,101829.84
2024-01-26T22:08:44.870Z,101823.72
2024-01-26T22:11:12.860Z,101830.91
2024-01-26T22:13:40.844Z,101804.19
2024-01-26T22:16:11.069Z,101821.91
2024-01-26T22:18:38.901Z,101828.06
2024-01-26T22:21:07.369Z,101743.56
2024-01-26T22:23:35.327Z,101828.16
2024-01-26T22:26:06.067Z,101786.28
2024-01-26T22:28:34.035Z,101840.53
2024-01-26T22:31:02.058Z,101836.13
2024-01-26T22:33:31.432Z,101841.44
2024-01-26T22:36:00.258Z,101848.50
2024-01-26T22:38:28.169Z,101853.84
2024-01-26T22:40:56.188Z,101860.03
2024-01-26T22:43:24.513Z,101858.31
2024-01-26T22:45:55.507Z,101861.75
2024-01-26T22:48:25.461Z,101862.72
2024-01-26T22:50:55.018Z,101860.03
2024-01-26T22:53:22.978Z,101865.31
2024-01-26T22:55:53.740Z,101867.19
2024-01-26T22:58:21.920Z,101789.78
2024-01-26T23:00:50.432Z,101865.38
2024-01-26T23:03:18.565Z,101866.25
2024-01-26T23:05:49.733Z,101826.03
2024-01-26T23:08:19.170Z,101875.91
2024-01-26T23:10:47.134Z,101876.00
2024-01-26T23:13:15.010Z,101875.09
2024-01-26T23:15:43.037Z,101876.78
2024-01-26T23:18:11.387Z,101879.47
2024-01-26T23:20:39.567Z,101882.97
2024-01-26T23:23:07.647Z,101887.38
2024-01-26T23:25:37.156Z,101893.66
2024-01-26T23:28:06.526Z,101900.78
2024-01-26T23:30:37.209Z,101903.53
2024-01-26T23:33:05.680Z,101904.34
2024-01-26T23:35:34.647Z,101904.38
2024-01-26T23:38:02.625Z,101895.56
2024-01-26T23:40:30.604Z,101890.13
2024-01-26T23:43:00.156Z,101906.88
2024-01-26T23:45:29.290Z,101900.66
2024-01-26T23:47:57.822Z,101900.69
2024-01-26T23:50:26.026Z,101909.59
2024-01-26T23:52:54.041Z,101914.97
2024-01-26T23:55:22.091Z,101923.78
2024-01-26T23:57:49.994Z,101888.28
